Rifle, Colorado
Current Conditions -  °F | °C
As of 12:53 AM on Sunday 26 Oct 2014 (Local Time) from KRIL Reporting Station
Scattered Clouds Scattered Clouds  
Wind Chill: 52°   Ceiling: Unl
Heat Index: 52°   Visibility: 10mi
Dew Point: 33°   Wind: 6mph
Humidity: 49%   Direction: 50°NE
Pressure: 30.05"   Gusts: NA
Location:  39.53°N, 107.78°W
Report Text: KRIL 260653Z AUTO 05005KT 10SM SCT100 11/01 A3005 RMK AO2 SLP127 T01110006 402390000 $
Loading
Personal Weather Stations






























Interactive Weather Map
Tropical Storm Tracking
New forecast layout! Learn more

10-Day Weather Forecast

Advertisements
Track Severe Weather on mobile